createdAt,value
2022-09-14T00:00:25.343Z,20.04
2022-09-14T00:01:31.891Z,20
2022-09-14T00:02:27.158Z,20.07
2022-09-14T00:03:27.199Z,20.04
2022-09-14T00:04:27.963Z,20.04
2022-09-14T00:05:28.467Z,20.08
2022-09-14T00:06:29.384Z,20.07
2022-09-14T00:07:29.584Z,20.04
2022-09-14T00:08:29.505Z,20.03
2022-09-14T00:09:30.421Z,20.04
2022-09-14T00:10:31.057Z,20.04
2022-09-14T00:11:31.672Z,20.03
2022-09-14T00:12:32.589Z,20.11
2022-09-14T00:13:32.929Z,20.08
2022-09-14T00:14:33.820Z,20.04
2022-09-14T00:15:34.736Z,20.04
2022-09-14T00:16:36.110Z,20.03
2022-09-14T00:17:35.995Z,19.94
2022-09-14T00:18:36.607Z,20.03
2022-09-14T00:19:36.849Z,19.99
2022-09-14T00:20:36.873Z,19.92
2022-09-14T00:21:38.236Z,19.94
2022-09-14T00:22:39.156Z,19.9
2022-09-14T00:23:40.366Z,19.84
2022-09-14T00:24:40.492Z,19.97
2022-09-14T00:25:41.703Z,19.92
2022-09-14T00:26:42.188Z,19.93
2022-09-14T00:27:43.112Z,19.93
2022-09-14T00:28:43.462Z,19.94
2022-09-14T00:29:43.567Z,19.93
2022-09-14T00:30:44.506Z,19.97
2022-09-14T00:31:45.246Z,19.92
2022-09-14T00:32:45.607Z,19.81
2022-09-14T00:33:45.518Z,19.89
2022-09-14T00:34:46.480Z,19.99
2022-09-14T00:35:46.706Z,19.92
2022-09-14T00:36:47.720Z,19.92
2022-09-14T00:37:48.344Z,19.92
2022-09-14T00:38:48.708Z,19.94
2022-09-14T00:39:49.545Z,19.97
2022-09-14T00:40:50.917Z,19.93
2022-09-14T00:41:50.979Z,19.87
2022-09-14T00:42:52.481Z,19.9
2022-09-14T00:43:52.488Z,19.87
2022-09-14T00:44:52.619Z,19.84
2022-09-14T00:45:53.835Z,19.78
2022-09-14T00:46:53.917Z,19.82
2022-09-14T00:47:54.904Z,19.82
2022-09-14T00:48:55.816Z,19.85
2022-09-14T00:49:56.037Z,19.75
2022-09-14T00:50:56.362Z,19.82
2022-09-14T00:51:56.993Z,19.92
2022-09-14T00:52:56.906Z,19.89
2022-09-14T00:53:58.447Z,19.77
2022-09-14T00:54:58.474Z,19.78
2022-09-14T00:55:58.384Z,19.79
2022-09-14T00:56:59.327Z,19.74
2022-09-14T00:57:59.959Z,19.81
2022-09-14T00:59:00.295Z,19.82
2022-09-14T01:00:00.787Z,19.79
2022-09-14T01:01:01.871Z,19.72
2022-09-14T01:02:02.531Z,19.79
2022-09-14T01:03:02.308Z,19.63
2022-09-14T01:04:03.224Z,19.71
2022-09-14T01:05:04.103Z,19.75
2022-09-14T01:06:04.027Z,19.6
2022-09-14T01:07:05.547Z,19.74
2022-09-14T01:08:05.165Z,19.67
2022-09-14T01:09:05.802Z,19.72
2022-09-14T01:10:06.996Z,19.67
2022-09-14T01:11:07.213Z,19.78
2022-09-14T01:12:07.249Z,19.66
2022-09-14T01:13:07.865Z,19.64
2022-09-14T01:14:08.501Z,19.75
2022-09-14T01:15:09.623Z,19.66
2022-09-14T01:16:10.012Z,19.67
2022-09-14T01:17:10.480Z,19.77
2022-09-14T01:18:11.097Z,19.67
2022-09-14T01:19:11.717Z,19.79
2022-09-14T01:20:12.641Z,19.74
2022-09-14T01:21:12.917Z,19.81
2022-09-14T01:22:13.414Z,19.74
2022-09-14T01:23:13.333Z,19.7
2022-09-14T01:24:13.947Z,19.67
2022-09-14T01:25:14.646Z,19.77
2022-09-14T01:26:15.130Z,19.66
2022-09-14T01:27:15.337Z,19.75
2022-09-14T01:28:15.953Z,19.62
2022-09-14T01:29:16.146Z,19.74
2022-09-14T01:30:17.070Z,19.63
2022-09-14T01:31:17.399Z,19.75
2022-09-14T01:32:18.256Z,19.77
2022-09-14T01:33:18.571Z,19.72
2022-09-14T01:34:20.067Z,19.66
2022-09-14T01:35:22.191Z,19.72
2022-09-14T01:36:21.379Z,19.64
2022-09-14T01:37:22.662Z,19.67
2022-09-14T01:38:23.310Z,19.64
2022-09-14T01:39:24.222Z,19.63
2022-09-14T01:40:25.091Z,19.63
2022-09-14T01:41:25.523Z,19.64
2022-09-14T01:42:26.133Z,19.62
2022-09-14T01:43:26.344Z,19.66
2022-09-14T01:44:26.627Z,19.6
2022-09-14T01:45:27.221Z,19.67
2022-09-14T01:46:28.587Z,19.66
2022-09-14T01:47:28.779Z,19.62
2022-09-14T01:48:29.676Z,19.6
2022-09-14T01:49:29.721Z,19.59
2022-09-14T01:50:30.742Z,19.59
2022-09-14T01:51:30.957Z,19.66
2022-09-14T01:52:31.889Z,19.64
2022-09-14T01:53:32.522Z,19.59
2022-09-14T01:54:33.435Z,19.63
2022-09-14T01:55:34.457Z,19.67
2022-09-14T01:56:35.095Z,19.64
2022-09-14T01:57:36.007Z,19.67
2022-09-14T01:58:36.651Z,19.64
2022-09-14T01:59:38.267Z,19.75
2022-09-14T02:00:38.372Z,19.77
2022-09-14T02:01:39.308Z,19.66
2022-09-14T02:02:41.220Z,19.77
2022-09-14T02:03:40.850Z,19.74
2022-09-14T02:04:40.943Z,19.75
2022-09-14T02:05:41.989Z,19.79
2022-09-14T02:06:42.187Z,19.79
2022-09-14T02:07:43.113Z,19.75
2022-09-14T02:08:42.753Z,19.78
2022-09-14T02:09:43.398Z,19.79
2022-09-14T02:10:44.317Z,19.75
2022-09-14T02:11:44.810Z,19.77
2022-09-14T02:12:44.701Z,19.77
2022-09-14T02:13:44.666Z,19.74
2022-09-14T02:14:45.884Z,19.71
2022-09-14T02:15:45.607Z,19.77
2022-09-14T02:16:46.849Z,19.77
2022-09-14T02:17:46.794Z,19.7
2022-09-14T02:18:48.007Z,19.75
2022-09-14T02:19:48.612Z,19.75
2022-09-14T02:20:48.830Z,19.64
2022-09-14T02:21:48.749Z,19.78
2022-09-14T02:22:50.250Z,19.72
2022-09-14T02:23:50.589Z,19.75
2022-09-14T02:24:51.228Z,19.63
2022-09-14T02:25:51.657Z,19.66
2022-09-14T02:26:52.547Z,19.63
2022-09-14T02:27:52.761Z,19.63
2022-09-14T02:28:53.156Z,19.59
2022-09-14T02:29:53.771Z,19.62
2022-09-14T02:30:53.804Z,19.64
2022-09-14T02:31:55.193Z,19.63
2022-09-14T02:32:55.550Z,19.67
2022-09-14T02:33:57.039Z,19.66
2022-09-14T02:34:56.930Z,19.55
2022-09-14T02:35:58.058Z,19.62
2022-09-14T02:36:58.553Z,19.63
2022-09-14T02:37:58.754Z,19.6
2022-09-14T02:38:59.385Z,19.6
2022-09-14T02:40:00.438Z,19.67
2022-09-14T02:41:00.791Z,19.67
2022-09-14T02:42:00.511Z,19.56
2022-09-14T02:43:01.127Z,19.6
2022-09-14T02:44:01.449Z,19.63
2022-09-14T02:45:02.087Z,19.57
2022-09-14T02:46:02.528Z,19.57
2022-09-14T02:47:03.956Z,19.6
2022-09-14T02:48:04.158Z,19.59
2022-09-14T02:49:04.366Z,19.55
2022-09-14T02:50:04.985Z,19.62
2022-09-14T02:51:05.696Z,19.56
2022-09-14T02:52:06.300Z,19.62
2022-09-14T02:53:07.228Z,19.56
2022-09-14T02:54:08.131Z,19.53
2022-09-14T02:55:08.065Z,19.49
2022-09-14T02:56:08.490Z,19.55
2022-09-14T02:57:08.986Z,19.52
2022-09-14T02:58:08.902Z,19.57
2022-09-14T02:59:09.517Z,19.49
2022-09-14T03:00:10.153Z,19.55
2022-09-14T03:01:11.035Z,19.49
2022-09-14T03:02:12.267Z,19.49
2022-09-14T03:03:13.089Z,19.53
2022-09-14T03:04:13.704Z,19.52
2022-09-14T03:05:14.061Z,19.48
2022-09-14T03:06:14.701Z,19.47
2022-09-14T03:07:15.059Z,19.49
2022-09-14T03:08:15.691Z,19.45
2022-09-14T03:09:15.625Z,19.48
2022-09-14T03:10:15.967Z,19.49
2022-09-14T03:11:17.601Z,19.55
2022-09-14T03:12:17.511Z,19.52
2022-09-14T03:13:18.448Z,19.57
2022-09-14T03:14:18.785Z,19.52
2022-09-14T03:15:19.399Z,19.53
2022-09-14T03:16:20.840Z,19.56
2022-09-14T03:17:20.678Z,19.49
2022-09-14T03:18:21.869Z,19.53
2022-09-14T03:19:22.485Z,19.49
2022-09-14T03:20:22.397Z,19.55
2022-09-14T03:21:23.065Z,19.48
2022-09-14T03:22:23.432Z,19.48
2022-09-14T03:23:23.650Z,19.52
2022-09-14T03:24:24.560Z,19.56
2022-09-14T03:25:24.898Z,19.52
2022-09-14T03:26:25.639Z,19.59
2022-09-14T03:27:26.254Z,19.55
2022-09-14T03:28:26.461Z,19.55
2022-09-14T03:29:27.373Z,19.57
2022-09-14T03:30:28.269Z,19.6
2022-09-14T03:31:29.036Z,19.62
2022-09-14T03:32:29.211Z,19.6
2022-09-14T03:33:29.548Z,19.63
2022-09-14T03:34:29.877Z,19.62
2022-09-14T03:35:30.365Z,19.62
2022-09-14T03:36:30.454Z,19.64
2022-09-14T03:37:30.665Z,19.67
2022-09-14T03:38:31.286Z,19.62
2022-09-14T03:39:31.604Z,19.62
2022-09-14T03:40:32.596Z,19.59
2022-09-14T03:41:32.573Z,19.63
2022-09-14T03:42:33.289Z,19.63
2022-09-14T03:43:33.180Z,19.6
2022-09-14T03:44:33.826Z,19.66
2022-09-14T03:45:34.175Z,19.64
2022-09-14T03:46:35.572Z,19.62
2022-09-14T03:47:35.771Z,19.72
2022-09-14T03:48:36.967Z,19.78
2022-09-14T03:49:37.287Z,19.81
2022-09-14T03:50:38.179Z,19.77
2022-09-14T03:51:38.702Z,19.75
2022-09-14T03:52:39.211Z,19.78
2022-09-14T03:53:40.111Z,19.74
2022-09-14T03:54:40.002Z,19.77
2022-09-14T03:55:40.920Z,19.74
2022-09-14T03:56:41.748Z,19.84
2022-09-14T03:57:42.644Z,19.77
2022-09-14T03:58:43.546Z,19.81
2022-09-14T03:59:49.414Z,19.87
2022-09-14T04:00:45.028Z,19.87
2022-09-14T04:01:46.121Z,19.85
2022-09-14T04:02:46.688Z,19.85
2022-09-14T04:03:47.144Z,19.89
2022-09-14T04:04:47.742Z,19.85
2022-09-14T04:05:48.367Z,19.79
2022-09-14T04:06:49.165Z,19.82
2022-09-14T04:07:49.200Z,19.87
2022-09-14T04:08:50.545Z,19.72
2022-09-14T04:09:51.140Z,19.87
2022-09-14T04:10:51.353Z,19.81
2022-09-14T04:11:51.968Z,19.85
2022-09-14T04:12:52.596Z,19.85
2022-09-14T04:13:53.220Z,19.85
2022-09-14T04:14:53.420Z,19.9
2022-09-14T04:15:54.203Z,19.74
2022-09-14T04:16:54.860Z,19.79
2022-09-14T04:17:55.769Z,19.89
2022-09-14T04:18:56.104Z,19.79
2022-09-14T04:19:57.300Z,19.85
2022-09-14T04:20:57.368Z,19.85
2022-09-14T04:21:58.491Z,19.84
2022-09-14T04:22:58.786Z,19.79
2022-09-14T04:24:31.378Z,19.72
2022-09-14T04:25:00.417Z,19.82
2022-09-14T04:26:01.389Z,19.74
2022-09-14T04:27:02.094Z,19.84
2022-09-14T04:28:25.698Z,19.87
2022-09-14T04:29:03.337Z,19.84
2022-09-14T04:30:04.530Z,19.81
2022-09-14T04:31:05.432Z,19.89
2022-09-14T04:32:06.226Z,19.93
2022-09-14T04:33:06.862Z,19.85
2022-09-14T04:34:07.775Z,19.92
2022-09-14T04:35:08.390Z,19.92
2022-09-14T04:36:08.727Z,19.82
2022-09-14T04:37:09.788Z,20.02
2022-09-14T04:38:10.014Z,19.93
2022-09-14T04:39:10.319Z,20.03
2022-09-14T04:40:11.135Z,20.04
2022-09-14T04:41:10.961Z,20
2022-09-14T04:42:11.287Z,20.08
2022-09-14T04:43:11.905Z,20.1
2022-09-14T04:44:12.096Z,20.03
2022-09-14T04:45:12.987Z,20.02
2022-09-14T04:46:14.352Z,20.02
2022-09-14T04:47:14.076Z,20.02
2022-09-14T04:48:14.691Z,19.99
2022-09-14T04:49:15.019Z,20.11
2022-09-14T04:50:15.945Z,19.99
2022-09-14T04:51:16.853Z,19.99
2022-09-14T04:52:17.104Z,19.96
2022-09-14T04:53:17.409Z,19.92
2022-09-14T04:54:18.333Z,19.89
2022-09-14T04:55:19.252Z,19.84
2022-09-14T04:56:19.871Z,19.89
2022-09-14T04:57:20.864Z,19.87
2022-09-14T04:58:21.199Z,19.85
2022-09-14T04:59:22.095Z,19.85
2022-09-14T05:00:22.983Z,19.89
2022-09-14T05:01:24.072Z,19.79
2022-09-14T05:02:24.485Z,19.84
2022-09-14T05:03:24.898Z,19.89
2022-09-14T05:04:24.800Z,19.89
2022-09-14T05:05:25.949Z,19.78
2022-09-14T05:06:25.268Z,19.84
2022-09-14T05:07:26.029Z,19.87
2022-09-14T05:08:25.953Z,19.9
2022-09-14T05:09:26.879Z,19.82
2022-09-14T05:10:27.817Z,19.7
2022-09-14T05:11:28.460Z,19.84
2022-09-14T05:12:29.369Z,19.84
2022-09-14T05:13:29.567Z,19.78
2022-09-14T05:14:30.185Z,19.85
2022-09-14T05:15:30.806Z,19.78
2022-09-14T05:16:31.735Z,19.82
2022-09-14T05:17:32.069Z,19.81
2022-09-14T05:18:32.960Z,19.92
2022-09-14T05:19:33.935Z,19.89
2022-09-14T05:20:34.854Z,19.84
2022-09-14T05:21:34.764Z,19.84
2022-09-14T05:22:35.774Z,19.81
2022-09-14T05:23:35.784Z,19.87
2022-09-14T05:24:37.112Z,19.75
2022-09-14T05:25:37.032Z,19.84
2022-09-14T05:26:37.949Z,19.87
2022-09-14T05:27:38.075Z,19.85
2022-09-14T05:28:39.262Z,19.85
2022-09-14T05:29:39.154Z,19.79
2022-09-14T05:30:39.791Z,19.84
2022-09-14T05:31:40.256Z,19.75
2022-09-14T05:32:40.639Z,19.82
2022-09-14T05:33:41.571Z,19.84
2022-09-14T05:34:42.277Z,19.84
2022-09-14T05:35:42.893Z,19.89
2022-09-14T05:36:44.087Z,19.67
2022-09-14T05:37:44.521Z,19.74
2022-09-14T05:38:45.019Z,19.84
2022-09-14T05:39:46.136Z,19.87
2022-09-14T05:40:46.621Z,19.92
2022-09-14T05:41:47.115Z,19.71
2022-09-14T05:42:47.314Z,19.82
2022-09-14T05:43:47.634Z,19.75
2022-09-14T05:44:48.151Z,19.78
2022-09-14T05:45:48.347Z,19.79
2022-09-14T05:46:49.413Z,19.72
2022-09-14T05:47:49.607Z,19.81
2022-09-14T05:48:50.870Z,19.72
2022-09-14T05:49:51.879Z,19.78
2022-09-14T05:50:52.500Z,19.75
2022-09-14T05:51:52.718Z,19.79
2022-09-14T05:52:53.835Z,19.79
2022-09-14T05:53:54.338Z,19.82
2022-09-14T05:54:54.561Z,19.71
2022-09-14T05:55:54.785Z,19.7
2022-09-14T05:56:54.693Z,19.6
2022-09-14T05:57:55.694Z,19.62
2022-09-14T05:58:56.192Z,19.57
2022-09-14T05:59:56.794Z,19.62
2022-09-14T06:00:57.727Z,19.63
2022-09-14T06:01:58.828Z,19.66
2022-09-14T06:02:59.110Z,19.66
2022-09-14T06:04:00.327Z,19.6
2022-09-14T06:05:01.410Z,19.64
2022-09-14T06:06:01.313Z,19.67
2022-09-14T06:07:23.491Z,19.62
2022-09-14T06:08:11.805Z,19.66
2022-09-14T06:09:12.388Z,19.62
2022-09-14T06:10:12.318Z,19.56
2022-09-14T06:11:12.810Z,19.59
2022-09-14T06:12:13.309Z,19.6
2022-09-14T06:13:13.247Z,19.55
2022-09-14T06:14:13.464Z,19.59
2022-09-14T06:15:14.662Z,19.57
2022-09-14T06:16:15.262Z,19.55
2022-09-14T06:17:16.199Z,19.56
2022-09-14T06:18:16.302Z,19.59
2022-09-14T06:19:16.217Z,19.67
2022-09-14T06:20:17.555Z,19.63
2022-09-14T06:21:18.493Z,19.6
2022-09-14T06:22:19.108Z,19.64
2022-09-14T06:23:20.334Z,19.62
2022-09-14T06:24:20.377Z,19.64
2022-09-14T06:25:21.711Z,19.66
2022-09-14T06:26:22.073Z,19.6
2022-09-14T06:27:22.988Z,19.71
2022-09-14T06:28:24.134Z,19.64
2022-09-14T06:29:25.060Z,19.63
2022-09-14T06:30:24.971Z,19.72
2022-09-14T06:31:26.016Z,19.77
2022-09-14T06:32:27.205Z,19.77
2022-09-14T06:33:27.099Z,19.74
2022-09-14T06:34:27.710Z,19.77
2022-09-14T06:35:28.031Z,19.79
2022-09-14T06:36:29.229Z,19.82
2022-09-14T06:37:29.421Z,19.7
2022-09-14T06:38:29.690Z,19.75
2022-09-14T06:39:30.053Z,19.75
2022-09-14T06:40:31.608Z,19.84
2022-09-14T06:41:32.135Z,19.82
2022-09-14T06:42:32.054Z,19.82
2022-09-14T06:43:32.974Z,19.89
2022-09-14T06:44:33.997Z,19.92
2022-09-14T06:45:34.325Z,19.93
2022-09-14T06:46:35.248Z,19.99
2022-09-14T06:47:36.367Z,20.03
2022-09-14T06:48:36.668Z,20.1
2022-09-14T06:49:37.567Z,20.12
2022-09-14T06:50:38.492Z,20.14
2022-09-14T06:51:38.412Z,20.21
2022-09-14T06:52:39.899Z,20.32
2022-09-14T06:53:40.069Z,20.26
2022-09-14T06:54:40.428Z,20.34
2022-09-14T06:55:41.200Z,20.39
2022-09-14T06:56:42.104Z,20.37
2022-09-14T06:57:46.641Z,20.34
2022-09-14T06:58:43.942Z,20.49
2022-09-14T06:59:44.447Z,20.52
2022-09-14T07:00:44.342Z,20.39
2022-09-14T07:01:45.259Z,20.49
2022-09-14T07:02:46.360Z,20.56
2022-09-14T07:03:46.445Z,20.6
2022-09-14T07:04:47.355Z,20.53
2022-09-14T07:05:47.973Z,20.58
2022-09-14T07:06:48.890Z,20.64
2022-09-14T07:07:50.095Z,20.59
2022-09-14T07:08:51.634Z,20.58
2022-09-14T07:09:51.891Z,20.64
2022-09-14T07:10:52.862Z,20.71
2022-09-14T07:11:53.768Z,20.82
2022-09-14T07:12:53.964Z,20.78
2022-09-14T07:13:54.752Z,20.8
2022-09-14T07:14:55.656Z,20.88
2022-09-14T07:15:55.877Z,20.85
2022-09-14T07:16:56.138Z,20.93
2022-09-14T07:17:56.055Z,20.89
2022-09-14T07:18:56.793Z,20.96
2022-09-14T07:21:05.343Z,20.95
2022-09-14T07:21:59.041Z,20.89
2022-09-14T07:22:59.947Z,21.01
2022-09-14T07:24:00.747Z,21.03
2022-09-14T07:25:01.006Z,21.03
2022-09-14T07:26:02.419Z,21.03
2022-09-14T07:27:02.058Z,21.07
2022-09-14T07:28:02.979Z,21.05
2022-09-14T07:29:03.991Z,21.03
2022-09-14T07:30:03.909Z,21.14
2022-09-14T07:36:08.446Z,21.15
2022-09-14T07:37:08.359Z,21.19
2022-09-14T07:38:09.275Z,21.14
2022-09-14T07:39:09.171Z,21.25
2022-09-14T07:40:10.082Z,21.25
2022-09-14T07:42:10.051Z,21.25
2022-09-14T07:43:11.006Z,21.32
2022-09-14T07:44:10.922Z,21.29
2022-09-14T07:45:11.278Z,21.28
2022-09-14T07:46:12.391Z,21.26
2022-09-14T07:47:12.953Z,21.2
2022-09-14T07:48:13.173Z,21.25
2022-09-14T07:49:13.084Z,21.26
2022-09-14T07:50:13.440Z,21.29
2022-09-14T07:51:14.101Z,21.25
2022-09-14T07:52:15.598Z,21.29
2022-09-14T07:53:15.790Z,21.29
2022-09-14T07:54:16.761Z,21.29
2022-09-14T07:55:17.165Z,21.29
2022-09-14T07:56:18.095Z,21.32
2022-09-14T07:57:52.513Z,21.33
2022-09-14T07:58:19.631Z,21.33
2022-09-14T07:59:42.992Z,21.4
2022-09-14T08:00:42.913Z,21.51
2022-09-14T08:01:43.736Z,21.47
2022-09-14T08:02:43.902Z,21.47
2022-09-14T08:03:45.260Z,21.59
2022-09-14T08:04:46.268Z,21.6
2022-09-14T08:05:46.492Z,21.65
2022-09-14T08:06:47.125Z,21.65
2022-09-14T08:07:47.472Z,21.69
2022-09-14T08:08:48.405Z,21.84
2022-09-14T08:09:48.436Z,21.84
2022-09-14T08:10:49.023Z,21.92
2022-09-14T08:11:49.270Z,21.99
2022-09-14T08:12:49.494Z,21.99
2022-09-14T08:13:49.419Z,22.04
2022-09-14T08:14:50.954Z,22
2022-09-14T08:15:51.979Z,22.03
2022-09-14T08:16:52.565Z,22.07
2022-09-14T08:17:52.180Z,22.12
2022-09-14T08:20:16.681Z,22.16
2022-09-14T08:21:05.290Z,22.21
2022-09-14T08:22:05.226Z,22.26
2022-09-14T08:23:05.595Z,22.33
2022-09-14T08:24:06.503Z,22.49
2022-09-14T08:25:07.744Z,22.53
2022-09-14T08:26:08.270Z,22.61
2022-09-14T08:27:09.238Z,22.67
2022-09-14T08:28:09.425Z,22.81
2022-09-14T08:29:09.780Z,22.74
2022-09-14T08:30:10.510Z,22.77
2022-09-14T08:31:10.585Z,22.84
2022-09-14T08:32:12.095Z,22.91
2022-09-14T08:33:12.291Z,22.93
2022-09-14T08:34:12.920Z,22.98
2022-09-14T08:35:13.850Z,22.98
2022-09-14T08:36:14.917Z,23.02
2022-09-14T08:37:15.403Z,23.13
2022-09-14T08:38:15.899Z,23.18
2022-09-14T08:39:16.432Z,23.13
2022-09-14T08:40:17.355Z,23.32
2022-09-14T08:41:16.927Z,23.32
2022-09-14T08:42:17.578Z,23.37
2022-09-14T08:43:19.041Z,23.4
2022-09-14T08:44:19.544Z,23.36
2022-09-14T08:45:19.832Z,23.45
2022-09-14T08:46:19.920Z,23.44
2022-09-14T08:47:20.125Z,23.52
2022-09-14T08:48:20.323Z,23.42
2022-09-14T08:49:20.964Z,23.45
2022-09-14T08:50:20.865Z,23.51
2022-09-14T08:51:21.113Z,23.58
2022-09-14T08:52:26.910Z,23.55
2022-09-14T08:53:22.705Z,23.62
2022-09-14T08:54:22.378Z,23.71
2022-09-14T08:55:26.061Z,23.74
2022-09-14T08:56:23.511Z,23.77
2022-09-14T08:57:23.726Z,23.84
2022-09-14T08:58:23.969Z,23.94
2022-09-14T08:59:24.970Z,23.96
2022-09-14T09:00:25.481Z,23.99
2022-09-14T09:01:25.861Z,24
2022-09-14T09:02:26.514Z,24.09
2022-09-14T09:03:27.521Z,24.09
2022-09-14T09:04:28.252Z,24.13
2022-09-14T09:05:28.490Z,24.14
2022-09-14T09:06:28.691Z,24.28
2022-09-14T09:07:29.205Z,24.31
2022-09-14T09:08:29.888Z,24.36
2022-09-14T09:09:30.242Z,24.46
2022-09-14T09:10:30.915Z,24.46
2022-09-14T09:11:31.632Z,24.53
2022-09-14T09:12:32.280Z,24.53
2022-09-14T09:13:33.684Z,24.58
2022-09-14T09:14:34.054Z,24.62
2022-09-14T09:15:35.554Z,24.68
2022-09-14T09:16:35.922Z,24.84
2022-09-14T09:17:36.287Z,24.79
2022-09-14T09:18:36.658Z,24.79
2022-09-14T09:19:37.282Z,24.89
2022-09-14T09:20:38.223Z,24.93
2022-09-14T09:21:38.606Z,25
2022-09-14T09:22:39.516Z,25.07
2022-09-14T09:23:40.723Z,24.99
2022-09-14T09:24:43.234Z,25.04
2022-09-14T09:25:42.176Z,25.22
2022-09-14T09:26:42.509Z,25.16
2022-09-14T09:27:43.149Z,25.21
2022-09-14T09:28:43.867Z,25.19
2022-09-14T09:29:44.370Z,25.3
2022-09-14T09:30:45.309Z,25.3
2022-09-14T09:31:45.884Z,25.31
2022-09-14T09:32:46.596Z,25.3
2022-09-14T09:33:46.539Z,25.33
2022-09-14T09:34:47.166Z,25.4
2022-09-14T09:35:48.093Z,25.36
2022-09-14T09:36:48.743Z,25.41
2022-09-14T09:37:49.673Z,25.46
2022-09-14T09:38:50.696Z,25.43
2022-09-14T09:39:50.604Z,25.44
2022-09-14T09:40:51.497Z,25.46
2022-09-14T09:41:51.873Z,25.61
2022-09-14T09:42:53.078Z,25.52
2022-09-14T09:43:55.763Z,25.68
2022-09-14T09:44:59.423Z,25.7
2022-09-14T09:45:55.013Z,25.74
2022-09-14T09:46:55.523Z,25.89
2022-09-14T09:47:55.504Z,25.8
2022-09-14T09:48:56.152Z,25.89
2022-09-14T09:49:56.500Z,25.89
2022-09-14T09:50:57.449Z,25.92
2022-09-14T09:51:58.441Z,25.93
2022-09-14T09:53:06.750Z,25.92
2022-09-14T09:53:59.830Z,25.95
2022-09-14T09:55:00.342Z,25.95
2022-09-14T09:56:01.443Z,26.06
2022-09-14T09:57:01.761Z,26.01
2022-09-14T09:58:01.636Z,25.96
2022-09-14T09:59:02.875Z,26.11
2022-09-14T10:00:04.083Z,26.11
2022-09-14T10:03:06.971Z,26.26
2022-09-14T10:04:07.265Z,26.26
2022-09-14T10:05:07.470Z,26.3
2022-09-14T10:06:08.672Z,26.3
2022-09-14T10:07:08.614Z,26.52
2022-09-14T10:08:13.760Z,26.59
2022-09-14T10:09:09.689Z,26.68
2022-09-14T10:10:10.894Z,26.78
2022-09-14T10:11:10.944Z,26.86
2022-09-14T10:12:11.276Z,26.92
2022-09-14T10:13:12.247Z,26.96
2022-09-14T10:14:12.279Z,26.98
2022-09-14T10:15:13.201Z,26.83
2022-09-14T10:17:14.583Z,26.82
2022-09-14T10:18:14.525Z,26.74
2022-09-14T10:19:15.728Z,26.74
2022-09-14T10:20:16.397Z,26.74
2022-09-14T10:21:17.361Z,26.55
2022-09-14T10:22:26.875Z,26.44
2022-09-14T10:23:17.963Z,26.41
2022-09-14T10:24:19.251Z,26.33
2022-09-14T10:25:19.776Z,26.31
2022-09-14T10:26:20.752Z,26.24
2022-09-14T10:27:21.361Z,26.24
2022-09-14T10:28:22.398Z,26.24
2022-09-14T10:29:22.351Z,26.37
2022-09-14T10:30:22.283Z,26.56
2022-09-14T10:31:23.434Z,26.78
2022-09-14T10:32:23.584Z,26.96
2022-09-14T10:33:24.594Z,27.13
2022-09-14T10:34:25.308Z,27.29
2022-09-14T10:35:25.235Z,27.43
2022-09-14T10:36:26.788Z,27.57
2022-09-14T10:37:27.403Z,27.63
2022-09-14T10:38:28.603Z,27.86
2022-09-14T10:39:31.922Z,27.95
2022-09-14T10:40:30.167Z,27.98
2022-09-14T10:41:30.916Z,28.13
2022-09-14T10:42:31.816Z,28.03
2022-09-14T10:43:32.744Z,27.82
2022-09-14T10:44:33.148Z,27.64
2022-09-14T10:45:33.062Z,27.6
2022-09-14T10:46:33.811Z,27.41
2022-09-14T10:47:34.285Z,27.3
2022-09-14T10:48:34.882Z,27.19
2022-09-14T10:49:34.803Z,27.15
2022-09-14T10:50:35.431Z,27
2022-09-14T10:51:35.802Z,26.92
2022-09-14T10:52:36.739Z,26.81
2022-09-14T10:53:36.668Z,26.76
2022-09-14T10:54:37.641Z,26.74
2022-09-14T10:55:38.565Z,26.66
2022-09-14T10:56:39.270Z,26.53
2022-09-14T10:57:39.197Z,26.45
2022-09-14T10:58:40.591Z,26.34
2022-09-14T10:59:40.714Z,26.33
2022-09-14T11:00:41.651Z,26.3
2022-09-14T11:01:42.874Z,26.34
2022-09-14T11:02:43.264Z,26.33
2022-09-14T11:03:53.113Z,26.22
2022-09-14T11:04:44.145Z,26.27
2022-09-14T11:05:44.375Z,26.23
2022-09-14T11:06:45.294Z,26.26
2022-09-14T11:07:46.496Z,26.18
2022-09-14T11:08:47.133Z,26.11
2022-09-14T11:09:47.333Z,26.11
2022-09-14T11:10:47.533Z,26.15
2022-09-14T11:11:48.193Z,26.1
2022-09-14T11:12:48.452Z,26.15
2022-09-14T11:13:49.469Z,26.04
2022-09-14T11:14:49.777Z,26.01
2022-09-14T11:15:50.228Z,26.04
2022-09-14T11:16:50.683Z,26.13
2022-09-14T11:17:50.341Z,26.24
2022-09-14T11:18:51.577Z,26.24
2022-09-14T11:19:51.805Z,26.31
2022-09-14T11:20:52.320Z,26.42
2022-09-14T11:21:53.250Z,26.45
2022-09-14T11:22:53.179Z,26.42
2022-09-14T11:23:54.381Z,26.33
2022-09-14T11:24:55.716Z,26.44
2022-09-14T11:25:56.086Z,26.41
2022-09-14T11:26:57.347Z,26.45
2022-09-14T11:27:57.750Z,26.41
2022-09-14T11:28:58.707Z,26.41
2022-09-14T11:29:59.298Z,26.55
2022-09-14T11:30:59.555Z,26.66
2022-09-14T11:32:24.957Z,26.7
2022-09-14T11:33:00.916Z,26.74
2022-09-14T11:34:02.176Z,26.74
2022-09-14T11:35:02.647Z,26.71
2022-09-14T11:36:03.293Z,26.68
2022-09-14T11:37:04.516Z,26.73
2022-09-14T11:38:04.453Z,26.78
2022-09-14T11:39:10.046Z,26.82
2022-09-14T11:40:05.929Z,26.83
2022-09-14T11:41:06.434Z,26.86
2022-09-14T11:42:07.191Z,26.83
2022-09-14T11:43:07.725Z,26.91
2022-09-14T11:44:07.981Z,26.83
2022-09-14T11:45:08.770Z,26.83
2022-09-14T11:46:09.190Z,26.83
2022-09-14T11:47:09.051Z,26.85
2022-09-14T11:48:43.540Z,26.92
2022-09-14T11:49:10.319Z,26.92
2022-09-14T11:50:11.234Z,26.98
2022-09-14T11:51:11.161Z,26.93
2022-09-14T11:52:12.389Z,27
2022-09-14T11:53:12.295Z,27.03
2022-09-14T11:54:13.265Z,27.05
2022-09-14T11:55:13.961Z,27.11
2022-09-14T11:56:14.168Z,27.18
2022-09-14T11:57:14.529Z,27.26
2022-09-14T11:58:15.051Z,27.29
2022-09-14T11:59:14.996Z,27.29
2022-09-14T12:00:16.301Z,27.22
2022-09-14T12:01:16.506Z,27.26
2022-09-14T12:02:16.889Z,27.26
2022-09-14T12:03:18.075Z,27.25
2022-09-14T12:04:18.314Z,27.23
2022-09-14T12:05:18.683Z,27.22
2022-09-14T12:06:18.904Z,27.19
2022-09-14T12:07:18.864Z,27.16
2022-09-14T12:08:19.506Z,27.13
2022-09-14T12:09:20.739Z,27.05
2022-09-14T12:10:21.959Z,26.89
2022-09-14T12:11:22.328Z,26.98
2022-09-14T12:12:23.586Z,26.96
2022-09-14T12:13:24.093Z,26.93
2022-09-14T12:14:23.730Z,26.86
2022-09-14T12:15:25.112Z,26.85
2022-09-14T12:16:25.073Z,26.74
2022-09-14T12:17:54.923Z,26.71
2022-09-14T12:18:26.421Z,26.76
2022-09-14T12:19:26.386Z,26.63
2022-09-14T12:20:27.318Z,26.7
2022-09-14T12:21:28.382Z,26.78
2022-09-14T12:22:29.394Z,26.63
2022-09-14T12:23:29.765Z,26.73
2022-09-14T12:24:30.851Z,26.67
2022-09-14T12:25:31.925Z,26.63
2022-09-14T12:26:32.576Z,26.68
2022-09-14T12:27:34.111Z,26.63
2022-09-14T12:28:34.593Z,26.64
2022-09-14T12:29:35.524Z,26.56
2022-09-14T12:30:41.236Z,26.6
2022-09-14T12:31:36.724Z,26.61
2022-09-14T12:32:37.456Z,26.56
2022-09-14T12:33:38.675Z,26.6
2022-09-14T12:34:39.321Z,26.53
2022-09-14T12:35:39.778Z,26.66
2022-09-14T12:36:39.750Z,26.46
2022-09-14T12:37:40.258Z,26.45
2022-09-14T12:38:40.198Z,26.44
2022-09-14T12:39:41.699Z,26.44
2022-09-14T12:40:42.130Z,26.34
2022-09-14T12:41:43.043Z,26.23
2022-09-14T12:42:44.361Z,26.07
2022-09-14T12:43:44.728Z,26.11
2022-09-14T12:44:44.809Z,25.98
2022-09-14T12:45:46.166Z,25.98
2022-09-14T12:46:46.660Z,25.93
2022-09-14T12:47:47.642Z,25.83
2022-09-14T12:48:48.289Z,25.8
2022-09-14T12:49:48.518Z,25.68
2022-09-14T12:50:49.743Z,25.77
2022-09-14T12:51:49.669Z,25.67
2022-09-14T12:52:49.870Z,25.68
2022-09-14T12:53:49.879Z,25.56
2022-09-14T12:54:56.769Z,25.55
2022-09-14T12:55:51.745Z,25.55
2022-09-14T12:56:52.093Z,25.48
2022-09-14T12:57:52.812Z,25.41
2022-09-14T12:58:53.475Z,25.41
2022-09-14T12:59:53.396Z,25.36
2022-09-14T13:00:54.621Z,25.34
2022-09-14T13:01:55.263Z,25.31
2022-09-14T13:02:56.033Z,25.31
2022-09-14T13:03:56.117Z,25.33
2022-09-14T13:04:56.041Z,25.29
2022-09-14T13:05:57.083Z,25.22
2022-09-14T13:06:57.711Z,25.18
2022-09-14T13:07:59.202Z,25.21
2022-09-14T13:08:59.851Z,25.15
2022-09-14T13:10:00.406Z,25.12
2022-09-14T13:11:01.095Z,25.14
2022-09-14T13:12:02.314Z,25.15
2022-09-14T13:13:02.760Z,24.97
2022-09-14T13:14:02.702Z,25
2022-09-14T13:15:03.307Z,25.01